Time;durP1;ratioP1;P1;durP2;ratioP2;P2;SDS_P1;SDS_P2;PMS_P1;PMS_P2;Temp;Humidity;BMP_temperature;BMP_pressure;BME280_temperature;BME280_humidity;BME280_pressure;Samples;Min_cycle;Max_cycle;Signal;HPM_P1;HPM_P2
2022/04/09 00:00:16;;;;;;;12.25;2.80;;;;;;;;;;5087318;28;20542;-72
2022/04/09 00:02:42;;;;;;;18.83;2.60;;;;;;;;;;5087123;28;20044;-72
2022/04/09 00:05:11;;;;;;;8.55;1.88;;;;;;;;;;5089472;28;20058;-73
2022/04/09 00:07:37;;;;;;;9.55;1.65;;;;;;;;;;5088248;28;20047;-72
2022/04/09 00:10:05;;;;;;;10.23;1.80;;;;;;;;;;5085443;28;20047;-73
2022/04/09 00:12:31;;;;;;;10.68;2.10;;;;;;;;;;5118573;27;20486;-72
2022/04/09 00:14:57;;;;;;;12.32;1.90;;;;;;;;;;5086171;28;20126;-72
2022/04/09 00:17:23;;;;;;;10.73;1.83;;;;;;;;;;5102146;27;20146;-72
2022/04/09 00:19:49;;;;;;;10.85;1.80;;;;;;;;;;5085987;28;20047;-72
2022/04/09 00:22:15;;;;;;;8.82;1.70;;;;;;;;;;5117892;27;20050;-72
2022/04/09 00:24:41;;;;;;;13.30;1.90;;;;;;;;;;5066981;27;20142;-72
2022/04/09 00:27:07;;;;;;;10.35;1.70;;;;;;;;;;5089152;28;20039;-75
2022/04/09 00:29:33;;;;;;;7.03;1.35;;;;;;;;;;5087065;28;20051;-72
2022/04/09 00:32:00;;;;;;;7.85;2.00;;;;;;;;;;5056071;28;20052;-72
2022/04/09 00:34:26;;;;;;;6.40;1.42;;;;;;;;;;5061394;28;20056;-72
2022/04/09 00:36:53;;;;;;;5.78;1.00;;;;;;;;;;5097281;27;20087;-74
2022/04/09 00:39:19;;;;;;;3.03;1.10;;;;;;;;;;5063195;28;20040;-73
2022/04/09 00:41:47;;;;;;;3.53;1.10;;;;;;;;;;5064586;28;20051;-72
2022/04/09 00:44:31;;;;;;;3.38;0.70;;;;;;;;;;5063848;28;20054;-73
2022/04/09 00:46:57;;;;;;;;;;;;;;;;;;5065535;28;20545;-72
2022/04/09 00:49:24;;;;;;;7.60;1.10;;;;;;;;;;5079924;28;20003;-72
2022/04/09 00:51:51;;;;;;;4.20;0.80;;;;;;;;;;5063196;28;20083;-72
2022/04/09 00:54:20;;;;;;;4.85;0.90;;;;;;;;;;5063653;28;20044;-73
2022/04/09 00:56:46;;;;;;;5.70;1.10;;;;;;;;;;5056791;28;20497;-72
2022/04/09 00:59:14;;;;;;;6.80;1.48;;;;;;;;;;5063920;28;20080;-72
2022/04/09 01:01:41;;;;;;;5.18;1.33;;;;;;;;;;5078286;28;20305;-75
2022/04/09 01:04:08;;;;;;;13.65;1.45;;;;;;;;;;5045214;28;20131;-73
2022/04/09 01:06:35;;;;;;;6.82;1.42;;;;;;;;;;5063210;28;20075;-72
2022/04/09 01:09:01;;;;;;;8.70;1.35;;;;;;;;;;5080205;28;20482;-72
2022/04/09 01:11:27;;;;;;;9.95;1.30;;;;;;;;;;5062089;28;20051;-76
2022/04/09 01:13:54;;;;;;;8.18;1.45;;;;;;;;;;5080404;28;20317;-72
2022/04/09 01:16:20;;;;;;;7.07;1.33;;;;;;;;;;5062380;28;20070;-72
2022/04/09 01:18:46;;;;;;;6.47;1.02;;;;;;;;;;5044735;28;20094;-72
2022/04/09 01:21:12;;;;;;;10.07;1.55;;;;;;;;;;5060775;28;20037;-76
2022/04/09 01:23:38;;;;;;;9.18;1.75;;;;;;;;;;5078270;28;20033;-73
2022/04/09 01:26:06;;;;;;;12.25;2.20;;;;;;;;;;5066883;28;20048;-72
2022/04/09 01:28:32;;;;;;;6.47;1.75;;;;;;;;;;5063022;28;20487;-73
2022/04/09 01:30:58;;;;;;;6.35;1.80;;;;;;;;;;5065658;28;20048;-75
2022/04/09 01:33:25;;;;;;;10.93;1.73;;;;;;;;;;5078930;28;20043;-73
2022/04/09 01:35:51;;;;;;;12.77;1.88;;;;;;;;;;5121684;27;20066;-73
2022/04/09 01:38:18;;;;;;;9.13;1.65;;;;;;;;;;5089231;27;20101;-72
2022/04/09 01:40:44;;;;;;;9.02;2.20;;;;;;;;;;5089590;28;20057;-73
2022/04/09 01:43:10;;;;;;;9.23;2.03;;;;;;;;;;5088665;27;20051;-74
2022/04/09 01:45:36;;;;;;;7.47;1.90;;;;;;;;;;5086452;27;20079;-72
2022/04/09 01:48:02;;;;;;;9.57;1.83;;;;;;;;;;5092287;28;20070;-72
2022/04/09 01:50:29;;;;;;;11.07;1.80;;;;;;;;;;5088670;28;20048;-73
2022/04/09 01:52:56;;;;;;;16.98;2.03;;;;;;;;;;5073521;27;20056;-76
2022/04/09 01:55:22;;;;;;;12.20;2.47;;;;;;;;;;5089366;28;20049;-73
2022/04/09 01:57:49;;;;;;;9.93;1.80;;;;;;;;;;5092082;28;20137;-72
2022/04/09 02:00:16;;;;;;;21.27;2.47;;;;;;;;;;5089471;28;20043;-75
2022/04/09 02:02:42;;;;;;;18.38;2.85;;;;;;;;;;5074049;27;20134;-73
2022/04/09 02:05:11;;;;;;;9.45;2.30;;;;;;;;;;5104471;27;20063;-72
2022/04/09 02:07:37;;;;;;;9.05;1.98;;;;;;;;;;5088876;28;20884;-72
2022/04/09 02:10:04;;;;;;;9.60;2.08;;;;;;;;;;5134190;27;20035;-73
2022/04/09 02:12:34;;;;;;;9.40;1.60;;;;;;;;;;5103514;27;20039;-73
2022/04/09 02:15:07;;;;;;;10.13;1.92;;;;;;;;;;5090111;28;20042;-72
2022/04/09 02:17:35;;;;;;;15.13;2.55;;;;;;;;;;5114567;27;20322;-73
2022/04/09 02:20:01;;;;;;;12.07;2.17;;;;;;;;;;5105970;27;20513;-72
2022/04/09 02:22:33;;;;;;;9.50;1.50;;;;;;;;;;5089438;28;20047;-72
2022/04/09 02:24:59;;;;;;;13.10;2.10;;;;;;;;;;5119046;27;20047;-75
2022/04/09 02:27:25;;;;;;;11.27;2.13;;;;;;;;;;5090595;28;20039;-72
2022/04/09 02:29:51;;;;;;;9.13;1.90;;;;;;;;;;5091212;28;20044;-72
2022/04/09 02:32:17;;;;;;;11.57;2.08;;;;;;;;;;5088126;28;20036;-75
2022/04/09 02:34:43;;;;;;;13.13;1.95;;;;;;;;;;5104656;28;20070;-72
2022/04/09 02:37:09;;;;;;;15.02;2.58;;;;;;;;;;5073425;28;20058;-72
2022/04/09 02:39:36;;;;;;;15.23;2.50;;;;;;;;;;5089270;28;20047;-72
2022/04/09 02:42:02;;;;;;;12.95;1.67;;;;;;;;;;5088373;28;20043;-73
2022/04/09 02:44:29;;;;;;;17.75;2.72;;;;;;;;;;5089124;28;20052;-75
2022/04/09 02:46:55;;;;;;;10.18;2.47;;;;;;;;;;5105756;28;20126;-72
2022/04/09 02:49:21;;;;;;;15.65;2.38;;;;;;;;;;5087700;28;20093;-74
2022/04/09 02:51:47;;;;;;;11.75;1.90;;;;;;;;;;5087989;28;20089;-72
2022/04/09 02:54:16;;;;;;;16.50;2.40;;;;;;;;;;5071293;28;20130;-72
2022/04/09 02:56:43;;;;;;;11.57;1.70;;;;;;;;;;5085074;28;20043;-72
2022/04/09 02:59:13;;;;;;;10.50;1.85;;;;;;;;;;5120055;27;20043;-72
2022/04/09 03:01:41;;;;;;;12.43;2.00;;;;;;;;;;5087784;27;20047;-75
2022/04/09 03:04:07;;;;;;;13.52;1.95;;;;;;;;;;5071527;28;20119;-73
2022/04/09 03:06:33;;;;;;;11.30;1.75;;;;;;;;;;5089888;28;20100;-72
2022/04/09 03:09:00;;;;;;;11.88;1.83;;;;;;;;;;5086150;27;20035;-72
2022/04/09 03:11:26;;;;;;;11.80;2.13;;;;;;;;;;5071320;28;20063;-76
2022/04/09 03:13:52;;;;;;;11.23;1.67;;;;;;;;;;5108599;27;20039;-72
2022/04/09 03:16:18;;;;;;;12.77;2.55;;;;;;;;;;5084842;28;20570;-72
2022/04/09 03:18:44;;;;;;;12.52;1.80;;;;;;;;;;5088593;28;20050;-72
2022/04/09 03:21:10;;;;;;;9.02;1.95;;;;;;;;;;5089344;28;20039;-72
2022/04/09 03:23:36;;;;;;;12.85;2.03;;;;;;;;;;5086510;28;20039;-73
2022/04/09 03:26:02;;;;;;;8.60;1.70;;;;;;;;;;5073250;28;20036;-72
2022/04/09 03:28:28;;;;;;;16.25;1.95;;;;;;;;;;5106283;28;20130;-72
2022/04/09 03:30:54;;;;;;;10.68;1.60;;;;;;;;;;5087932;28;20079;-73
2022/04/09 03:33:20;;;;;;;8.35;1.50;;;;;;;;;;5069741;28;20108;-76
2022/04/09 03:35:47;;;;;;;13.43;2.63;;;;;;;;;;5087808;28;20059;-73
2022/04/09 03:38:13;;;;;;;16.70;2.33;;;;;;;;;;5121158;27;20086;-72
2022/04/09 03:40:40;;;;;;;10.35;1.80;;;;;;;;;;5104235;27;20382;-72
2022/04/09 03:43:06;;;;;;;13.05;1.77;;;;;;;;;;5103584;27;21636;-75
2022/04/09 03:45:32;;;;;;;10.77;1.30;;;;;;;;;;5089148;28;20047;-72
2022/04/09 03:47:58;;;;;;;9.73;1.65;;;;;;;;;;5088098;27;20046;-72
2022/04/09 03:50:24;;;;;;;9.43;1.38;;;;;;;;;;5088569;28;20401;-76
2022/04/09 03:52:50;;;;;;;9.13;1.63;;;;;;;;;;5057475;27;20063;-72
2022/04/09 03:55:16;;;;;;;16.88;2.25;;;;;;;;;;5098577;28;20052;-72
2022/04/09 03:57:42;;;;;;;9.50;1.42;;;;;;;;;;5084526;28;20057;-72
2022/04/09 04:00:10;;;;;;;8.90;1.38;;;;;;;;;;5120193;27;20036;-72
2022/04/09 04:02:36;;;;;;;9.55;2.13;;;;;;;;;;5085999;27;20494;-72
2022/04/09 04:05:03;;;;;;;6.90;1.40;;;;;;;;;;5092358;28;20486;-73
2022/04/09 04:07:34;;;;;;;6.75;1.35;;;;;;;;;;5087563;28;20402;-72
2022/04/09 04:10:04;;;;;;;11.63;1.50;;;;;;;;;;5088947;28;20895;-73
2022/04/09 04:12:30;;;;;;;7.55;1.50;;;;;;;;;;5086083;28;20122;-72
2022/04/09 04:14:57;;;;;;;9.07;1.73;;;;;;;;;;5085104;28;20035;-72
2022/04/09 04:17:23;;;;;;;15.32;2.15;;;;;;;;;;5071987;28;20043;-72
2022/04/09 04:19:49;;;;;;;11.48;1.67;;;;;;;;;;5100653;27;20047;-75
2022/04/09 04:22:16;;;;;;;10.40;2.20;;;;;;;;;;5089461;28;20039;-73
2022/04/09 04:24:42;;;;;;;12.15;2.33;;;;;;;;;;5103842;27;20397;-72
2022/04/09 04:27:08;;;;;;;8.23;1.90;;;;;;;;;;5087655;28;20431;-72
2022/04/09 04:29:34;;;;;;;6.03;1.10;;;;;;;;;;5099895;27;20083;-73
2022/04/09 04:32:01;;;;;;;8.40;1.50;;;;;;;;;;5104491;27;20040;-73
2022/04/09 04:34:27;;;;;;;9.38;1.63;;;;;;;;;;5070119;28;20177;-76
2022/04/09 04:36:53;;;;;;;9.45;1.65;;;;;;;;;;5103666;28;20398;-72
2022/04/09 04:39:19;;;;;;;12.63;1.40;;;;;;;;;;5085060;27;20074;-72
2022/04/09 04:41:45;;;;;;;12.25;1.42;;;;;;;;;;5069024;28;20469;-72
2022/04/09 04:44:11;;;;;;;6.80;1.48;;;;;;;;;;5068320;28;20055;-73
2022/04/09 04:46:39;;;;;;;6.10;0.90;;;;;;;;;;5087816;28;20156;-72
2022/04/09 04:49:05;;;;;;;12.73;2.55;;;;;;;;;;5068701;28;20061;-74
2022/04/09 04:51:31;;;;;;;14.40;2.47;;;;;;;;;;5085029;28;20425;-73
2022/04/09 04:53:58;;;;;;;6.32;1.20;;;;;;;;;;5084658;28;20135;-71
2022/04/09 04:56:25;;;;;;;9.25;1.80;;;;;;;;;;5085897;27;20378;-71
2022/04/09 04:58:51;;;;;;;10.50;2.30;;;;;;;;;;5101684;28;20394;-71
2022/04/09 05:01:17;;;;;;;11.77;1.63;;;;;;;;;;5069368;27;20089;-73
2022/04/09 05:03:43;;;;;;;8.13;1.48;;;;;;;;;;5065532;28;20043;-71
2022/04/09 05:06:09;;;;;;;8.23;1.50;;;;;;;;;;5117471;27;20048;-72
2022/04/09 05:08:36;;;;;;;13.82;1.48;;;;;;;;;;5081566;28;20040;-71
2022/04/09 05:11:02;;;;;;;8.95;1.23;;;;;;;;;;5072623;27;20099;-74
2022/04/09 05:13:28;;;;;;;10.00;1.40;;;;;;;;;;5089397;27;20055;-73
2022/04/09 05:15:54;;;;;;;6.07;1.48;;;;;;;;;;5059211;27;20050;-73
2022/04/09 05:18:20;;;;;;;11.50;2.45;;;;;;;;;;5070758;27;20067;-73
2022/04/09 05:20:46;;;;;;;8.70;1.30;;;;;;;;;;5073842;28;20048;-77
2022/04/09 05:23:12;;;;;;;11.85;1.70;;;;;;;;;;5073470;28;20054;-74
2022/04/09 05:25:38;;;;;;;16.20;1.98;;;;;;;;;;5089633;28;20043;-71
2022/04/09 05:28:05;;;;;;;14.13;2.08;;;;;;;;;;5075002;28;20124;-72
2022/04/09 05:30:34;;;;;;;12.88;1.80;;;;;;;;;;5072429;28;20066;-76
2022/04/09 05:33:01;;;;;;;12.90;1.90;;;;;;;;;;5106493;27;20044;-72
2022/04/09 05:35:27;;;;;;;14.77;2.28;;;;;;;;;;5086996;28;20051;-76
2022/04/09 05:37:53;;;;;;;15.00;2.15;;;;;;;;;;5107768;27;20873;-72
2022/04/09 05:40:20;;;;;;;11.40;1.90;;;;;;;;;;5120729;27;20047;-74
2022/04/09 05:42:46;;;;;;;11.23;1.73;;;;;;;;;;5124121;27;20449;-72
2022/04/09 05:45:12;;;;;;;;;;;;;;;;;;5080604;28;20044;-73
2022/04/09 05:47:38;;;;;;;;;;;;;;;;;;5079394;27;19953;-74
2022/04/09 05:50:05;;;;;;;;;;;;;;;;;;5082364;28;19924;-73
2022/04/09 05:52:31;;;;;;;;;;;;;;;;;;5128298;27;19973;-73
2022/04/09 05:54:59;;;;;;;;;;;;;;;;;;5091721;28;19920;-73
2022/04/09 05:57:25;;;;;;;;;;;;;;;;;;5094163;27;20003;-75
2022/04/09 05:59:51;;;;;;;;;;;;;;;;;;5111472;27;19967;-72
2022/04/09 06:02:17;;;;;;;;;;;;;;;;;;5115838;27;20285;-72
2022/04/09 06:04:43;;;;;;;;;;;;;;;;;;5092197;28;19924;-72
2022/04/09 06:07:11;;;;;;;;;;;;;;;;;;5065095;27;19920;-72
2022/04/09 06:09:37;;;;;;;;;;;;;;;;;;5103589;27;19920;-72
2022/04/09 06:12:05;;;;;;;;;;;;;;;;;;5090986;27;19945;-72
2022/04/09 06:14:31;;;;;;;;;;;;;;;;;;5119135;27;20010;-73
2022/04/09 06:16:57;;;;;;;;;;;;;;;;;;5102106;28;19969;-73
2022/04/09 06:19:23;;;;;;;;;;;;;;;;;;5098643;28;19931;-73
2022/04/09 06:21:49;;;;;;;;;;;;;;;;;;5107535;28;19968;-73
2022/04/09 06:24:15;;;;;;;;;;;;;;;;;;5096770;27;20010;-72
2022/04/09 06:26:41;;;;;;;;;;;;;;;;;;5105454;27;19920;-73
2022/04/09 06:29:07;;;;;;;;;;;;;;;;;;5103825;28;19919;-73
2022/04/09 06:31:33;;;;;;;;;;;;;;;;;;5083651;28;20293;-73
2022/04/09 06:33:59;;;;;;;;;;;;;;;;;;5133835;27;19965;-73
2022/04/09 06:36:25;;;;;;;;;;;;;;;;;;5075227;28;19920;-73
2022/04/09 06:38:51;;;;;;;;;;;;;;;;;;5088989;28;20368;-74
2022/04/09 06:41:20;;;;;;;;;;;;;;;;;;5081869;28;19916;-73
2022/04/09 06:43:46;;;;;;;;;;;;;;;;;;5120662;27;19920;-73
2022/04/09 06:46:12;;;;;;;;;;;;;;;;;;5121689;27;19917;-74
2022/04/09 06:48:38;;;;;;;;;;;;;;;;;;5122368;27;19938;-73
2022/04/09 06:51:04;;;;;;;;;;;;;;;;;;5077595;28;19920;-74
2022/04/09 06:53:30;;;;;;;;;;;;;;;;;;5094562;28;19916;-76
2022/04/09 06:55:56;;;;;;;;;;;;;;;;;;5084702;28;19927;-73
2022/04/09 06:58:22;;;;;;;;;;;;;;;;;;5108759;27;19968;-73
2022/04/09 07:00:48;;;;;;;;;;;;;;;;;;5106786;27;19961;-73
2022/04/09 07:03:14;;;;;;;;;;;;;;;;;;5082388;28;19942;-73
2022/04/09 07:05:40;;;;;;;;;;;;;;;;;;5078129;28;19932;-74
2022/04/09 07:08:08;;;;;;;;;;;;;;;;;;5117847;27;19924;-73
2022/04/09 07:10:34;;;;;;;;;;;;;;;;;;5074560;28;20283;-73
2022/04/09 07:13:00;;;;;;;;;;;;;;;;;;5119026;27;20684;-73
2022/04/09 07:15:25;;;;;;;;;;;;;;;;;;5079206;28;20006;-73
2022/04/09 07:17:51;;;;;;;;;;;;;;;;;;5109846;27;19920;-73
2022/04/09 07:20:17;;;;;;;;;;;;;;;;;;5065324;28;19921;-73
2022/04/09 07:22:45;;;;;;;;;;;;;;;;;;5073057;28;19920;-73
2022/04/09 07:25:11;;;;;;;;;;;;;;;;;;5080633;28;19920;-73
2022/04/09 07:27:37;;;;;;;;;;;;;;;;;;5075703;28;19926;-72
2022/04/09 07:30:03;;;;;;;;;;;;;;;;;;5085792;28;19920;-73
2022/04/09 07:32:28;;;;;;;;;;;;;;;;;;5114208;27;20366;-72
2022/04/09 07:34:54;;;;;;;;;;;;;;;;;;5093894;28;20396;-72
2022/04/09 07:37:21;;;;;;;;;;;;;;;;;;5087134;28;19975;-74
2022/04/09 07:39:47;;;;;;;;;;;;;;;;;;5095237;28;19943;-76
2022/04/09 07:42:12;;;;;;;;;;;;;;;;;;5078653;28;20351;-74
2022/04/09 07:44:38;;;;;;;;;;;;;;;;;;5068888;28;19920;-72
2022/04/09 07:47:04;;;;;;;;;;;;;;;;;;5073866;28;20386;-72
2022/04/09 07:49:30;;;;;;;;;;;;;;;;;;5105077;27;19920;-74
2022/04/09 07:51:56;;;;;;;;;;;;;;;;;;5069679;28;20024;-74
2022/04/09 07:54:24;;;;;;;;;;;;;;;;;;5073670;28;19946;-75
2022/04/09 07:56:50;;;;;;;;;;;;;;;;;;5062868;28;19924;-73
2022/04/09 07:59:16;;;;;;;;;;;;;;;;;;5072717;28;20378;-74
2022/04/09 08:01:41;;;;;;;;;;;;;;;;;;5077026;28;20271;-73
2022/04/09 08:04:07;;;;;;;;;;;;;;;;;;5080284;28;19928;-73
2022/04/09 08:06:33;;;;;;;;;;;;;;;;;;5079810;28;19920;-74
2022/04/09 08:08:59;;;;;;;;;;;;;;;;;;5106163;27;20105;-72
2022/04/09 08:11:26;;;;;;;;;;;;;;;;;;5077351;28;19970;-73
2022/04/09 08:13:53;;;;;;;;;;;;;;;;;;5076780;28;19923;-72
2022/04/09 08:16:19;;;;;;;;;;;;;;;;;;5101080;28;19928;-74
2022/04/09 08:18:45;;;;;;;;;;;;;;;;;;5083283;28;20371;-72
2022/04/09 08:21:11;;;;;;;;;;;;;;;;;;5066202;28;20409;-74
2022/04/09 08:23:37;;;;;;;;;;;;;;;;;;5085434;28;19963;-72
2022/04/09 08:26:03;;;;;;;;;;;;;;;;;;5108328;27;19971;-75
2022/04/09 08:28:31;;;;;;;;;;;;;;;;;;5084373;28;20351;-72
2022/04/09 08:30:57;;;;;;;;;;;;;;;;;;5110791;27;20333;-76
2022/04/09 08:33:23;;;;;;;;;;;;;;;;;;5086861;28;20293;-73
2022/04/09 08:35:49;;;;;;;;;;;;;;;;;;5084793;28;19939;-73
2022/04/09 08:38:16;;;;;;;;;;;;;;;;;;5084691;28;20007;-73
2022/04/09 08:40:43;;;;;;;;;;;;;;;;;;5059620;28;20015;-74
2022/04/09 08:43:08;;;;;;;;;;;;;;;;;;5080059;28;19920;-76
2022/04/09 08:45:34;;;;;;;;;;;;;;;;;;5076233;28;20000;-76
2022/04/09 08:48:02;;;;;;;;;;;;;;;;;;5071583;28;19931;-76
2022/04/09 08:50:27;;;;;;;;;;;;;;;;;;5120517;27;19962;-76
2022/04/09 08:52:53;;;;;;;;;;;;;;;;;;5074681;28;20347;-77
2022/04/09 08:55:19;;;;;;;;;;;;;;;;;;5074935;28;20675;-76
2022/04/09 08:57:46;;;;;;;;;;;;;;;;;;5114865;27;19971;-75
2022/04/09 09:00:13;;;;;;;;;;;;;;;;;;5089663;28;19936;-76
2022/04/09 09:02:39;;;;;;;;;;;;;;;;;;5114975;27;20317;-76
2022/04/09 09:05:05;;;;;;;;;;;;;;;;;;5111998;27;20247;-75
2022/04/09 09:07:31;;;;;;;;;;;;;;;;;;5092392;28;19924;-76
2022/04/09 09:09:57;;;;;;;;;;;;;;;;;;5079945;28;20024;-75
2022/04/09 09:12:23;;;;;;;;;;;;;;;;;;5110038;27;19927;-74
2022/04/09 09:14:51;;;;;;;;;;;;;;;;;;5076427;28;19928;-76
2022/04/09 09:17:16;;;;;;;;;;;;;;;;;;5108262;28;19928;-75
2022/04/09 09:19:42;;;;;;;;;;;;;;;;;;5107590;27;19926;-75
2022/04/09 09:22:08;;;;;;;;;;;;;;;;;;5110800;27;20375;-76
2022/04/09 09:24:34;;;;;;;;;;;;;;;;;;5077548;28;19924;-75
2022/04/09 09:27:00;;;;;;;;;;;;;;;;;;5072584;28;19924;-74
2022/04/09 09:29:27;;;;;;;;;;;;;;;;;;5083091;28;19924;-76
2022/04/09 09:31:53;;;;;;;;;;;;;;;;;;5116917;27;19924;-75
2022/04/09 09:34:19;;;;;;;;;;;;;;;;;;5113880;27;20366;-75
2022/04/09 09:36:45;;;;;;;;;;;;;;;;;;5086852;28;19968;-75
2022/04/09 09:39:11;;;;;;;;;;;;;;;;;;5088347;28;19924;-76
2022/04/09 09:41:37;;;;;;;;;;;;;;;;;;5097282;28;19920;-75
2022/04/09 09:44:03;;;;;;;;;;;;;;;;;;5073626;28;20287;-75
2022/04/09 09:46:29;;;;;;;;;;;;;;;;;;5104976;28;19923;-75
2022/04/09 09:48:55;;;;;;;;;;;;;;;;;;5086000;28;19920;-74
2022/04/09 09:51:22;;;;;;;;;;;;;;;;;;5108779;27;20379;-75
2022/04/09 09:53:48;;;;;;;;;;;;;;;;;;5072307;28;19942;-74
2022/04/09 09:56:14;;;;;;;;;;;;;;;;;;5104849;28;20351;-74
2022/04/09 09:58:40;;;;;;;;;;;;;;;;;;5117208;27;19931;-78
2022/04/09 10:01:07;;;;;;;;;;;;;;;;;;5078625;27;20012;-74
2022/04/09 10:03:33;;;;;;;;;;;;;;;;;;5125277;27;19919;-74
2022/04/09 10:05:59;;;;;;;;;;;;;;;;;;5111729;27;19931;-77
2022/04/09 10:08:25;;;;;;;;;;;;;;;;;;5128866;27;20431;-74
2022/04/09 10:10:51;;;;;;;;;;;;;;;;;;5090074;28;19969;-74
2022/04/09 10:13:16;;;;;;;;;;;;;;;;;;5136538;27;19990;-75
2022/04/09 10:15:42;;;;;;;;;;;;;;;;;;5095427;28;19927;-75
2022/04/09 10:18:09;;;;;;;;;;;;;;;;;;5077525;28;19920;-75
2022/04/09 10:20:34;;;;;;;;;;;;;;;;;;5096428;28;19931;-74
2022/04/09 10:23:00;;;;;;;;;;;;;;;;;;5094855;28;19919;-74
2022/04/09 10:25:28;;;;;;;;;;;;;;;;;;5094703;28;19980;-74
2022/04/09 10:27:55;;;;;;;;;;;;;;;;;;5094589;28;19924;-74
2022/04/09 10:30:22;;;;;;;;;;;;;;;;;;5077982;27;19927;-75
2022/04/09 10:32:48;;;;;;;;;;;;;;;;;;5076243;28;19923;-75
2022/04/09 10:35:14;;;;;;;;;;;;;;;;;;5092360;28;19927;-76
2022/04/09 10:37:40;;;;;;;;;;;;;;;;;;5125131;27;19924;-75
2022/04/09 10:40:06;;;;;;;;;;;;;;;;;;5093801;28;19972;-75
2022/04/09 10:42:32;;;;;;;;;;;;;;;;;;5089673;27;19927;-74
2022/04/09 10:44:58;;;;;;;;;;;;;;;;;;5094706;28;19998;-75
2022/04/09 10:47:24;;;;;;;;;;;;;;;;;;5087504;28;19926;-77
2022/04/09 10:49:50;;;;;;;;;;;;;;;;;;5127471;27;19919;-76
2022/04/09 10:52:15;;;;;;;;;;;;;;;;;;5090088;28;19927;-79
2022/04/09 10:54:43;;;;;;;;;;;;;;;;;;5072172;28;19920;-78
2022/04/09 10:57:09;;;;;;;;;;;;;;;;;;5086838;28;19928;-80
2022/04/09 10:59:36;;;;;;;;;;;;;;;;;;5090319;28;19926;-78
2022/04/09 11:02:04;;;;;;;;;;;;;;;;;;5090218;28;20004;-77
2022/04/09 11:04:36;;;;;;;;;;;;;;;;;;5076780;28;19927;-78
2022/04/09 11:07:02;;;;;;;;;;;;;;;;;;5075847;28;20361;-77
2022/04/09 11:09:28;;;;;;;;;;;;;;;;;;5093361;28;19919;-76
2022/04/09 11:11:54;;;;;;;;;;;;;;;;;;5089584;28;19965;-76
2022/04/09 11:14:19;;;;;;;;;;;;;;;;;;5086703;28;19927;-79
2022/04/09 11:16:45;;;;;;;;;;;;;;;;;;5097701;28;19927;-76
2022/04/09 11:19:11;;;;;;;;;;;;;;;;;;5070583;28;19923;-75
2022/04/09 11:21:37;;;;;;;;;;;;;;;;;;5071293;28;19924;-73
2022/04/09 11:24:03;;;;;;;;;;;;;;;;;;5119026;27;19950;-75
2022/04/09 11:26:29;;;;;;;;;;;;;;;;;;5088447;28;19919;-73
2022/04/09 11:28:55;;;;;;;;;;;;;;;;;;5083911;28;19919;-76
2022/04/09 11:31:22;;;;;;;;;;;;;;;;;;5071255;28;19927;-72
2022/04/09 11:33:47;;;;;;;;;;;;;;;;;;5070070;28;19964;-73
2022/04/09 11:36:13;;;;;;;;;;;;;;;;;;5070776;28;19958;-72
2022/04/09 11:38:39;;;;;;;;;;;;;;;;;;5093841;28;19928;-72
2022/04/09 11:41:07;;;;;;;;;;;;;;;;;;5093287;28;19926;-71
2022/04/09 11:43:33;;;;;;;;;;;;;;;;;;5097161;27;19919;-71
2022/04/09 11:45:58;;;;;;;;;;;;;;;;;;5090187;28;19920;-75
2022/04/09 11:48:26;;;;;;;;;;;;;;;;;;5120507;27;19929;-72
2022/04/09 11:50:53;;;;;;;;;;;;;;;;;;5120274;27;20370;-72
2022/04/09 11:53:19;;;;;;;;;;;;;;;;;;5094551;28;19927;-72
2022/04/09 11:55:45;;;;;;;;;;;;;;;;;;5072038;28;19950;-71
2022/04/09 11:58:11;;;;;;;;;;;;;;;;;;5091625;28;19930;-72
2022/04/09 12:00:37;;;;;;;;;;;;;;;;;;5122349;27;19950;-74
2022/04/09 12:03:03;;;;;;;;;;;;;;;;;;5120435;27;20357;-72
2022/04/09 12:05:29;;;;;;;;;;;;;;;;;;5089927;28;19927;-72
2022/04/09 12:07:55;;;;;;;;;;;;;;;;;;5072798;28;20429;-71
2022/04/09 12:10:22;;;;;;;;;;;;;;;;;;5105891;27;20707;-73
2022/04/09 12:12:48;;;;;;;;;;;;;;;;;;5121182;27;19923;-73
2022/04/09 12:15:14;;;;;;;;;;;;;;;;;;5085571;28;20638;-73
2022/04/09 12:17:40;;;;;;;;;;;;;;;;;;5083295;28;20281;-73
2022/04/09 12:20:06;;;;;;;;;;;;;;;;;;5073358;28;20223;-74
2022/04/09 12:22:32;;;;;;;;;;;;;;;;;;5106126;28;19927;-73
2022/04/09 12:24:58;;;;;;;;;;;;;;;;;;5072738;28;19920;-73
2022/04/09 12:27:24;;;;;;;;;;;;;;;;;;5125676;27;19920;-73
2022/04/09 12:29:51;;;;;;;;;;;;;;;;;;5091516;28;20259;-73
2022/04/09 12:32:18;;;;;;;;;;;;;;;;;;5090780;28;19935;-72
2022/04/09 12:34:44;;;;;;;;;;;;;;;;;;5127045;27;19919;-73
2022/04/09 12:37:09;;;;;;;;;;;;;;;;;;5092426;28;19935;-73
2022/04/09 12:39:40;;;;;;;;;;;;;;;;;;5127291;27;19927;-73
2022/04/09 12:42:06;;;;;;;;;;;;;;;;;;5086706;28;19924;-73
2022/04/09 12:44:32;;;;;;;;;;;;;;;;;;5121780;27;19924;-72
2022/04/09 12:46:58;;;;;;;;;;;;;;;;;;5091439;28;19920;-73
2022/04/09 12:49:24;;;;;;;;;;;;;;;;;;5124896;27;20165;-73
2022/04/09 12:51:50;;;;;;;;;;;;;;;;;;5092536;28;19927;-73
2022/04/09 12:54:16;;;;;;;;;;;;;;;;;;5091163;28;19965;-72
2022/04/09 12:56:41;;;;;;;;;;;;;;;;;;5109163;28;19928;-72
2022/04/09 12:59:07;;;;;;;;;;;;;;;;;;5092869;27;19934;-72
2022/04/09 13:01:33;;;;;;;;;;;;;;;;;;5093365;28;19974;-72
2022/04/09 13:04:00;;;;;;;;;;;;;;;;;;5077973;28;20494;-74
2022/04/09 13:06:26;;;;;;;;;;;;;;;;;;5090297;28;20459;-72
2022/04/09 13:08:52;;;;;;;;;;;;;;;;;;5077371;28;19935;-75
2022/04/09 13:11:18;;;;;;;;;;;;;;;;;;5086767;28;19920;-73
2022/04/09 13:13:45;;;;;;;;;;;;;;;;;;5090149;28;19927;-73
2022/04/09 13:16:11;;;;;;;;;;;;;;;;;;5073131;28;19923;-76
2022/04/09 13:18:38;;;;;;;;;;;;;;;;;;5107734;28;19964;-75
2022/04/09 13:21:04;;;;;;;;;;;;;;;;;;5092177;28;19926;-71
2022/04/09 13:23:30;;;;;;;;;;;;;;;;;;5110132;28;19915;-72
2022/04/09 13:25:56;;;;;;;;;;;;;;;;;;5089247;28;19916;-76
2022/04/09 13:28:22;;;;;;;;;;;;;;;;;;5095146;28;19938;-71
2022/04/09 13:30:48;;;;;;;;;;;;;;;;;;5093622;28;19941;-71
2022/04/09 13:33:14;;;;;;;;;;;;;;;;;;5095658;28;19919;-71
2022/04/09 13:35:43;;;;;;;;;;;;;;;;;;5091825;28;19927;-72
2022/04/09 13:38:09;;;;;;;;;;;;;;;;;;5090311;28;19915;-72
2022/04/09 13:40:35;;;;;;;;;;;;;;;;;;5122158;27;19919;-70
2022/04/09 13:43:01;;;;;;;;;;;;;;;;;;5090917;28;19919;-72
2022/04/09 13:45:27;;;;;;;;;;;;;;;;;;5075556;28;19970;-80
2022/04/09 13:47:53;;;;;;;;;;;;;;;;;;5088669;28;19997;-76
2022/04/09 13:50:20;;;;;;;;;;;;;;;;;;5089536;27;19923;-75
2022/04/09 13:52:46;;;;;;;;;;;;;;;;;;5108709;27;20018;-73
2022/04/09 13:55:12;;;;;;;;;;;;;;;;;;5126555;27;20038;-78
2022/04/09 13:57:38;;;;;;;;;;;;;;;;;;5120501;27;19920;-75
2022/04/09 14:00:05;;;;;;;;;;;;;;;;;;5102181;28;20350;-76
2022/04/09 14:02:31;;;;;;;;;;;;;;;;;;5070772;28;19920;-75
2022/04/09 14:04:56;;;;;;;;;;;;;;;;;;5087112;28;19963;-81
2022/04/09 14:07:22;;;;;;;;;;;;;;;;;;5090220;28;20322;-80
2022/04/09 14:09:48;;;;;;;;;;;;;;;;;;5073960;28;19919;-79
2022/04/09 14:12:14;;;;;;;;;;;;;;;;;;5074087;28;19924;-81
2022/04/09 14:14:40;;;;;;;;;;;;;;;;;;5069611;28;20386;-86
2022/04/09 14:17:06;;;;;;;;;;;;;;;;;;5076173;28;19923;-81
2022/04/09 14:19:32;;;;;;;;;;;;;;;;;;5086201;28;19931;-78
2022/04/09 14:21:58;;;;;;;;;;;;;;;;;;5073246;27;20010;-75
2022/04/09 14:24:24;;;;;;;;;;;;;;;;;;5083869;28;19927;-73
2022/04/09 14:26:51;;;;;;;;;;;;;;;;;;5065202;27;19927;-75
2022/04/09 14:29:17;;;;;;;;;;;;;;;;;;5069953;28;19919;-75
2022/04/09 14:31:43;;;;;;;;;;;;;;;;;;5088426;27;20020;-73
2022/04/09 14:34:09;;;;;;;;;;;;;;;;;;5120481;27;19993;-76
2022/04/09 14:36:35;;;;;;;;;;;;;;;;;;5096746;27;19939;-77
2022/04/09 14:39:05;;;;;;;;;;;;;;;;;;5131440;27;19923;-73
2022/04/09 14:41:31;;;;;;;;;;;;;;;;;;5118700;27;20386;-74
2022/04/09 14:43:58;;;;;;;;;;;;;;;;;;5086414;28;19919;-73
2022/04/09 14:46:24;;;;;;;;;;;;;;;;;;5085319;28;19992;-73
2022/04/09 14:48:50;;;;;;;;;;;;;;;;;;5088366;28;20359;-74
2022/04/09 14:51:16;;;;;;;;;;;;;;;;;;5117268;27;20304;-77
2022/04/09 14:53:42;;;;;;;;;;;;;;;;;;5084305;28;20348;-78
2022/04/09 14:56:08;;;;;;;;;;;;;;;;;;5083092;28;19928;-76
2022/04/09 14:58:35;;;;;;;;;;;;;;;;;;5084111;28;19950;-73
2022/04/09 15:01:01;;;;;;;;;;;;;;;;;;5122987;27;20382;-72
2022/04/09 15:03:27;;;;;;;;;;;;;;;;;;5125408;27;19977;-72
2022/04/09 15:05:53;;;;;;;;;;;;;;;;;;5128146;27;20390;-72
2022/04/09 15:08:19;;;;;;;;;;;;;;;;;;5113357;27;20312;-71
2022/04/09 15:10:45;;;;;;;;;;;;;;;;;;5129892;27;19965;-71
2022/04/09 15:13:11;;;;;;;;;;;;;;;;;;5101793;28;21016;-71
2022/04/09 15:15:37;;;;;;;;;;;;;;;;;;5099605;27;19923;-70
2022/04/09 15:18:03;;;;;;;;;;;;;;;;;;5112250;27;19924;-70
2022/04/09 15:20:29;;;;;;;;;;;;;;;;;;5074428;28;20294;-71
2022/04/09 15:22:55;;;;;;;;;;;;;;;;;;5102267;27;19920;-70
2022/04/09 15:25:21;;;;;;;;;;;;;;;;;;5128963;27;20343;-70
2022/04/09 15:27:47;;;;;;;;;;;;;;;;;;5111714;28;20395;-71
2022/04/09 15:30:13;;;;;;;;;;;;;;;;;;5084009;28;20498;-70
2022/04/09 15:32:39;;;;;;;;;;;;;;;;;;5100735;27;19920;-71
2022/04/09 15:35:05;;;;;;;;;;;;;;;;;;5068980;28;20384;-71
2022/04/09 15:37:31;;;;;;;;;;;;;;;;;;5111709;27;19935;-70
2022/04/09 15:39:57;;;;;;;;;;;;;;;;;;5101454;27;19919;-71
2022/04/09 15:42:24;;;;;;;;;;;;;;;;;;5067892;28;19920;-71
2022/04/09 15:44:50;;;;;;;;;;;;;;;;;;5104276;27;19967;-71
2022/04/09 15:47:16;;;;;;;5.78;1.40;;;;;;;;;;5105439;28;20385;-70